BBC Congo — V2EL3 — position and weather

sailwx.info

Track history (hours):
 
Tides and Currents Weather Stations Pressure Air Temp Water Temp Dewpoint Dewpoint Depression Visibility Wind Speed Wind Dir Waves Ship Positions

BBC Congo

Last reported at 2015-Jan-15 00:08 UTC. Time now 2015-Jan-29 20:25 UTC.
Position N 35°59' E 000°03'.
Warning: this ship's position is 14 days out of date.

Length 144 m; draft 7 m.

Type: Ship. MMSI: 305466000.

Date/timePositionNaut miles runAvg speedWind from/ knotsBaromVisibWave heightAir tempDewpointWater temp
2015-Jan-15 00:08N 35°59' E 000°03'0 0.0
2015-Jan-14 23:14N 35°59' E 000°03'0 0.0
2015-Jan-14 19:32N 35°59' E 000°03'0 0.0
2015-Jan-13 19:32N 35°59' E 000°03'  
2015-Jan-11 02:17N 35°59' E 000°03'0 0.0
2015-Jan-10 17:17N 35°59' E 000°03'0 0.0
2015-Jan-10 15:32N 35°59' E 000°03'1 1.4
2015-Jan-10 14:32N 36°00' E 000°04'1212.4
2015-Jan-10 13:33N 36°11' E 000°11'1514.5
2015-Jan-10 12:32N 36°21' E 000°25'1313.3
2015-Jan-10 11:33N 36°30' E 000°36'6013.5
2015-Jan-10 07:06N 37°13' E 001°29'2013.4
2015-Jan-10 05:34N 37°28' E 001°47'1713.5
2015-Jan-10 04:19N 37°40' E 002°01'1413.6
2015-Jan-10 03:16N 37°50' E 002°13'1113.8
2015-Jan-10 02:29N 37°58' E 002°23'1313.7
2015-Jan-10 01:33N 38°07' E 002°34'1413.6
2015-Jan-10 00:34N 38°17' E 002°46'1313.2
2015-Jan-09 23:33N 38°27' E 002°58'1313.4
2015-Jan-09 22:33N 38°37' E 003°10'1414.2
2015-Jan-09 21:33N 38°47' E 003°22'1414.0
2015-Jan-09 20:33N 38°57' E 003°35'1414.1
2015-Jan-09 19:33N 39°07' E 003°47'1413.7
2015-Jan-09 18:32N 39°17' E 004°00'1914.1
2015-Jan-09 17:10N 39°30' E 004°18'6513.9
2015-Jan-09 12:28N 40°17' E 005°17'24612.0
2015-Jan-08 16:03N 43°15' E 009°04'713.3
2015-Jan-08 15:34N 43°20' E 009°10'1413.6
2015-Jan-08 14:34N 43°31' E 009°22'1414.0
2015-Jan-08 13:33N 43°41' E 009°35'1414.4
2015-Jan-08 12:33N 43°51' E 009°50'1413.9
2015-Jan-08 11:34N 44°01' E 010°03'1 1.0
2015-Jan-08 10:33N 44°02' E 010°03'0 0.0
2015-Jan-08 09:33N 44°02' E 010°03'0 0.0
2015-Jan-08 08:30N 44°02' E 010°03'0 0.0
2015-Jan-08 07:33N 44°02' E 010°03'0 0.0
2015-Jan-08 06:33N 44°02' E 010°03'0 0.0
2015-Jan-08 05:33N 44°02' E 010°03'1 1.1
2015-Jan-08 04:31N 44°01' E 010°02'0 0.1
2015-Jan-08 03:49N 44°01' E 010°02'12 1.6
2015-Jan-07 20:33N 43°52' E 009°52'1413.8
2015-Jan-07 19:33N 43°42' E 009°39'1414.1
2015-Jan-07 18:33N 43°32' E 009°25'1414.0
2015-Jan-07 17:33N 43°22' E 009°12'1514.5
2015-Jan-07 16:32N 43°11' E 008°57'12714.2
2015-Jan-07 07:33N 41°39' E 006°58'18413.9
2015-Jan-06 18:14N 39°31' E 004°04'1014.1
2015-Jan-06 17:29N 39°25' E 003°52'1314.2
2015-Jan-06 16:33N 39°18' E 003°38'1414.2
2015-Jan-06 15:33N 39°11' E 003°22'1414.2
2015-Jan-06 14:33N 39°03' E 003°07'1414.3
2015-Jan-06 13:33N 38°55' E 002°51'1514.6
2015-Jan-06 12:33N 38°47' E 002°35'12214.4
2015-Jan-06 04:04N 37°42' E 000°25'814.4
2015-Jan-06 03:32N 37°38' E 000°16'3114.5
2015-Jan-06 01:24N 37°21' W 000°17'1714.2
2015-Jan-06 00:14N 37°12' W 000°34'24313.8
2015-Jan-05 06:33N 35°59' W 005°23'6318.5
2015-Jan-05 03:10N 36°00' W 006°40'4 6.9
2015-Jan-05 02:32N 36°01' W 006°46'1311.1
2015-Jan-05 01:22N 36°05' W 007°01'1114.0
2015-Jan-05 00:33N 36°08' W 007°15'  
Track history (hours):
 
Tides and Currents Weather Stations Pressure Air Temp Water Temp Dewpoint Dewpoint Depression Visibility Wind Speed Wind Dir Waves Ship Positions

BBC Congo

Last reported at 2015-Jan-15 00:08 UTC. Time now 2015-Jan-29 20:25 UTC.
Position N 35°59' E 000°03'.
Warning: this ship's position is 14 days out of date.

Length 144 m; draft 7 m.

Type: Ship. MMSI: 305466000.

Date/timePositionNaut miles runAvg speedWind from/ knotsBaromVisibWave heightAir tempDewpointWater temp
2015-Jan-15 00:08N 35°59' E 000°03'0 0.0
2015-Jan-14 23:14N 35°59' E 000°03'0 0.0
2015-Jan-14 19:32N 35°59' E 000°03'0 0.0
2015-Jan-13 19:32N 35°59' E 000°03'  
2015-Jan-11 02:17N 35°59' E 000°03'0 0.0
2015-Jan-10 17:17N 35°59' E 000°03'0 0.0
2015-Jan-10 15:32N 35°59' E 000°03'1 1.4
2015-Jan-10 14:32N 36°00' E 000°04'1212.4
2015-Jan-10 13:33N 36°11' E 000°11'1514.5
2015-Jan-10 12:32N 36°21' E 000°25'1313.3
2015-Jan-10 11:33N 36°30' E 000°36'6013.5
2015-Jan-10 07:06N 37°13' E 001°29'2013.4
2015-Jan-10 05:34N 37°28' E 001°47'1713.5
2015-Jan-10 04:19N 37°40' E 002°01'1413.6
2015-Jan-10 03:16N 37°50' E 002°13'1113.8
2015-Jan-10 02:29N 37°58' E 002°23'1313.7
2015-Jan-10 01:33N 38°07' E 002°34'1413.6
2015-Jan-10 00:34N 38°17' E 002°46'1313.2
2015-Jan-09 23:33N 38°27' E 002°58'1313.4
2015-Jan-09 22:33N 38°37' E 003°10'1414.2
2015-Jan-09 21:33N 38°47' E 003°22'1414.0
2015-Jan-09 20:33N 38°57' E 003°35'1414.1
2015-Jan-09 19:33N 39°07' E 003°47'1413.7
2015-Jan-09 18:32N 39°17' E 004°00'1914.1
2015-Jan-09 17:10N 39°30' E 004°18'6513.9
2015-Jan-09 12:28N 40°17' E 005°17'24612.0
2015-Jan-08 16:03N 43°15' E 009°04'713.3
2015-Jan-08 15:34N 43°20' E 009°10'1413.6
2015-Jan-08 14:34N 43°31' E 009°22'1414.0
2015-Jan-08 13:33N 43°41' E 009°35'1414.4
2015-Jan-08 12:33N 43°51' E 009°50'1413.9
2015-Jan-08 11:34N 44°01' E 010°03'1 1.0
2015-Jan-08 10:33N 44°02' E 010°03'0 0.0
2015-Jan-08 09:33N 44°02' E 010°03'0 0.0
2015-Jan-08 08:30N 44°02' E 010°03'0 0.0
2015-Jan-08 07:33N 44°02' E 010°03'0 0.0
2015-Jan-08 06:33N 44°02' E 010°03'0 0.0
2015-Jan-08 05:33N 44°02' E 010°03'1 1.1
2015-Jan-08 04:31N 44°01' E 010°02'0 0.1
2015-Jan-08 03:49N 44°01' E 010°02'12 1.6
2015-Jan-07 20:33N 43°52' E 009°52'1413.8
2015-Jan-07 19:33N 43°42' E 009°39'1414.1
2015-Jan-07 18:33N 43°32' E 009°25'1414.0
2015-Jan-07 17:33N 43°22' E 009°12'1514.5
2015-Jan-07 16:32N 43°11' E 008°57'12714.2
2015-Jan-07 07:33N 41°39' E 006°58'18413.9
2015-Jan-06 18:14N 39°31' E 004°04'1014.1
2015-Jan-06 17:29N 39°25' E 003°52'1314.2
2015-Jan-06 16:33N 39°18' E 003°38'1414.2
2015-Jan-06 15:33N 39°11' E 003°22'1414.2
2015-Jan-06 14:33N 39°03' E 003°07'1414.3
2015-Jan-06 13:33N 38°55' E 002°51'1514.6
2015-Jan-06 12:33N 38°47' E 002°35'12214.4
2015-Jan-06 04:04N 37°42' E 000°25'814.4
2015-Jan-06 03:32N 37°38' E 000°16'3114.5
2015-Jan-06 01:24N 37°21' W 000°17'1714.2
2015-Jan-06 00:14N 37°12' W 000°34'24313.8
2015-Jan-05 06:33N 35°59' W 005°23'6318.5
2015-Jan-05 03:10N 36°00' W 006°40'4 6.9
2015-Jan-05 02:32N 36°01' W 006°46'1311.1
2015-Jan-05 01:22N 36°05' W 007°01'1114.0
2015-Jan-05 00:33N 36°08' W 007°15'  

Dump ship's entire track history